sensor_id;sensor_type;location;lat;lon;timestamp;P1;durP1;ratioP1;P2;durP2;ratioP2
55692;SDS011;41590;53.366;5.212;2022-10-31T00:01:22;19.98;;;2.58;;
55692;SDS011;41590;53.366;5.212;2022-10-31T00:03:50;18.30;;;2.50;;
55692;SDS011;41590;53.366;5.212;2022-10-31T00:06:17;21.80;;;2.53;;
55692;SDS011;41590;53.366;5.212;2022-10-31T00:08:45;24.70;;;2.28;;
55692;SDS011;41590;53.366;5.212;2022-10-31T00:11:12;20.75;;;2.30;;
55692;SDS011;41590;53.366;5.212;2022-10-31T00:13:38;20.15;;;1.58;;
55692;SDS011;41590;53.366;5.212;2022-10-31T00:16:04;25.75;;;2.83;;
55692;SDS011;41590;53.366;5.212;2022-10-31T00:18:38;19.58;;;1.83;;
55692;SDS011;41590;53.366;5.212;2022-10-31T00:21:04;27.77;;;3.08;;
55692;SDS011;41590;53.366;5.212;2022-10-31T00:23:31;22.25;;;3.03;;
55692;SDS011;41590;53.366;5.212;2022-10-31T00:26:01;19.65;;;2.33;;
55692;SDS011;41590;53.366;5.212;2022-10-31T00:28:30;21.15;;;2.50;;
55692;SDS011;41590;53.366;5.212;2022-10-31T00:31:03;23.90;;;2.63;;
55692;SDS011;41590;53.366;5.212;2022-10-31T00:33:32;29.67;;;2.85;;
55692;SDS011;41590;53.366;5.212;2022-10-31T00:35:59;21.88;;;2.28;;
55692;SDS011;41590;53.366;5.212;2022-10-31T00:38:25;23.42;;;2.83;;
55692;SDS011;41590;53.366;5.212;2022-10-31T00:40:52;21.85;;;2.65;;
55692;SDS011;41590;53.366;5.212;2022-10-31T00:43:18;24.95;;;2.65;;
55692;SDS011;41590;53.366;5.212;2022-10-31T00:45:45;27.15;;;2.65;;
55692;SDS011;41590;53.366;5.212;2022-10-31T00:48:11;25.13;;;2.42;;
55692;SDS011;41590;53.366;5.212;2022-10-31T00:50:46;31.25;;;3.00;;
55692;SDS011;41590;53.366;5.212;2022-10-31T00:55:41;30.65;;;4.25;;
55692;SDS011;41590;53.366;5.212;2022-10-31T00:58:09;21.63;;;2.58;;
55692;SDS011;41590;53.366;5.212;2022-10-31T01:00:39;30.15;;;2.47;;
55692;SDS011;41590;53.366;5.212;2022-10-31T01:03:06;28.10;;;3.63;;
55692;SDS011;41590;53.366;5.212;2022-10-31T01:05:32;23.92;;;2.65;;
55692;SDS011;41590;53.366;5.212;2022-10-31T01:08:01;24.60;;;3.03;;
55692;SDS011;41590;53.366;5.212;2022-10-31T01:10:27;21.70;;;2.20;;
55692;SDS011;41590;53.366;5.212;2022-10-31T01:12:54;21.42;;;2.10;;
55692;SDS011;41590;53.366;5.212;2022-10-31T01:15:20;25.83;;;2.22;;
55692;SDS011;41590;53.366;5.212;2022-10-31T01:17:49;24.13;;;2.60;;
55692;SDS011;41590;53.366;5.212;2022-10-31T01:20:15;22.83;;;3.30;;
55692;SDS011;41590;53.366;5.212;2022-10-31T01:22:42;25.42;;;2.75;;
55692;SDS011;41590;53.366;5.212;2022-10-31T01:25:12;16.20;;;1.70;;
55692;SDS011;41590;53.366;5.212;2022-10-31T01:27:38;26.73;;;3.47;;
55692;SDS011;41590;53.366;5.212;2022-10-31T01:30:04;37.65;;;3.13;;
55692;SDS011;41590;53.366;5.212;2022-10-31T01:32:30;22.83;;;2.30;;
55692;SDS011;41590;53.366;5.212;2022-10-31T01:35:02;21.88;;;2.92;;
55692;SDS011;41590;53.366;5.212;2022-10-31T01:37:28;23.13;;;2.20;;
55692;SDS011;41590;53.366;5.212;2022-10-31T01:39:57;18.20;;;2.13;;
55692;SDS011;41590;53.366;5.212;2022-10-31T01:44:59;20.20;;;2.92;;
55692;SDS011;41590;53.366;5.212;2022-10-31T01:50:48;18.50;;;2.95;;
55692;SDS011;41590;53.366;5.212;2022-10-31T01:53:20;24.65;;;3.05;;
55692;SDS011;41590;53.366;5.212;2022-10-31T01:55:47;28.27;;;3.42;;
55692;SDS011;41590;53.366;5.212;2022-10-31T01:58:24;22.80;;;3.08;;
55692;SDS011;41590;53.366;5.212;2022-10-31T02:00:53;21.23;;;2.92;;
55692;SDS011;41590;53.366;5.212;2022-10-31T02:03:24;25.83;;;3.28;;
55692;SDS011;41590;53.366;5.212;2022-10-31T02:08:27;24.95;;;3.90;;
55692;SDS011;41590;53.366;5.212;2022-10-31T02:10:56;21.17;;;2.50;;
55692;SDS011;41590;53.366;5.212;2022-10-31T02:15:58;21.77;;;2.88;;
55692;SDS011;41590;53.366;5.212;2022-10-31T02:31:07;16.73;;;3.22;;
55692;SDS011;41590;53.366;5.212;2022-10-31T02:33:57;18.60;;;3.35;;
55692;SDS011;41590;53.366;5.212;2022-10-31T02:45:11;27.27;;;4.15;;
55692;SDS011;41590;53.366;5.212;2022-10-31T02:47:43;24.38;;;4.60;;
55692;SDS011;41590;53.366;5.212;2022-10-31T02:52:38;17.20;;;3.92;;
55692;SDS011;41590;53.366;5.212;2022-10-31T02:55:44;17.20;;;4.57;;
55692;SDS011;41590;53.366;5.212;2022-10-31T03:06:08;19.45;;;5.05;;
55692;SDS011;41590;53.366;5.212;2022-10-31T03:14:32;16.63;;;3.80;;
55692;SDS011;41590;53.366;5.212;2022-10-31T03:17:14;26.63;;;5.35;;
55692;SDS011;41590;53.366;5.212;2022-10-31T03:19:49;22.92;;;6.72;;
55692;SDS011;41590;53.366;5.212;2022-10-31T03:22:27;18.48;;;5.60;;
55692;SDS011;41590;53.366;5.212;2022-10-31T03:24:56;20.52;;;6.45;;
55692;SDS011;41590;53.366;5.212;2022-10-31T03:27:25;27.20;;;6.30;;
55692;SDS011;41590;53.366;5.212;2022-10-31T03:34:57;28.53;;;7.40;;
55692;SDS011;41590;53.366;5.212;2022-10-31T03:37:27;24.77;;;7.72;;
55692;SDS011;41590;53.366;5.212;2022-10-31T03:39:54;27.92;;;7.88;;
55692;SDS011;41590;53.366;5.212;2022-10-31T03:42:23;19.88;;;7.18;;
55692;SDS011;41590;53.366;5.212;2022-10-31T03:44:55;20.85;;;6.75;;
55692;SDS011;41590;53.366;5.212;2022-10-31T03:47:29;23.70;;;6.05;;
55692;SDS011;41590;53.366;5.212;2022-10-31T03:49:56;24.90;;;5.35;;
55692;SDS011;41590;53.366;5.212;2022-10-31T03:55:19;24.10;;;6.57;;
55692;SDS011;41590;53.366;5.212;2022-10-31T04:00:39;32.20;;;6.53;;
55692;SDS011;41590;53.366;5.212;2022-10-31T04:03:09;25.13;;;8.73;;
55692;SDS011;41590;53.366;5.212;2022-10-31T04:05:48;25.85;;;7.75;;
55692;SDS011;41590;53.366;5.212;2022-10-31T04:08:19;23.17;;;8.43;;
55692;SDS011;41590;53.366;5.212;2022-10-31T04:10:49;27.00;;;9.13;;
55692;SDS011;41590;53.366;5.212;2022-10-31T04:13:19;33.58;;;10.23;;
55692;SDS011;41590;53.366;5.212;2022-10-31T04:15:53;36.58;;;9.70;;
55692;SDS011;41590;53.366;5.212;2022-10-31T04:18:22;28.55;;;8.75;;
55692;SDS011;41590;53.366;5.212;2022-10-31T04:20:48;30.00;;;9.52;;
55692;SDS011;41590;53.366;5.212;2022-10-31T04:23:22;23.73;;;8.70;;
55692;SDS011;41590;53.366;5.212;2022-10-31T04:25:50;31.30;;;9.35;;
55692;SDS011;41590;53.366;5.212;2022-10-31T04:28:16;34.33;;;9.30;;
55692;SDS011;41590;53.366;5.212;2022-10-31T04:30:50;33.22;;;8.85;;
55692;SDS011;41590;53.366;5.212;2022-10-31T04:33:20;30.55;;;9.30;;
55692;SDS011;41590;53.366;5.212;2022-10-31T04:35:48;39.55;;;9.90;;
55692;SDS011;41590;53.366;5.212;2022-10-31T04:38:15;36.60;;;10.93;;
55692;SDS011;41590;53.366;5.212;2022-10-31T04:40:41;42.25;;;11.50;;
55692;SDS011;41590;53.366;5.212;2022-10-31T04:43:07;29.58;;;10.65;;
55692;SDS011;41590;53.366;5.212;2022-10-31T04:45:33;26.38;;;9.40;;
55692;SDS011;41590;53.366;5.212;2022-10-31T04:48:02;28.60;;;10.27;;
55692;SDS011;41590;53.366;5.212;2022-10-31T04:50:28;28.90;;;11.30;;
55692;SDS011;41590;53.366;5.212;2022-10-31T04:52:53;35.50;;;11.50;;
55692;SDS011;41590;53.366;5.212;2022-10-31T04:55:21;38.58;;;13.20;;
55692;SDS011;41590;53.366;5.212;2022-10-31T05:00:20;48.50;;;16.77;;
55692;SDS011;41590;53.366;5.212;2022-10-31T05:02:58;43.55;;;15.25;;
55692;SDS011;41590;53.366;5.212;2022-10-31T05:05:26;46.60;;;16.33;;
55692;SDS011;41590;53.366;5.212;2022-10-31T05:08:04;43.17;;;15.95;;
55692;SDS011;41590;53.366;5.212;2022-10-31T05:15:49;49.22;;;18.27;;
55692;SDS011;41590;53.366;5.212;2022-10-31T05:18:15;49.33;;;18.33;;
55692;SDS011;41590;53.366;5.212;2022-10-31T05:20:46;41.72;;;18.98;;
55692;SDS011;41590;53.366;5.212;2022-10-31T05:23:12;49.33;;;18.65;;
55692;SDS011;41590;53.366;5.212;2022-10-31T05:25:39;39.35;;;19.00;;
55692;SDS011;41590;53.366;5.212;2022-10-31T05:28:06;48.63;;;19.23;;
55692;SDS011;41590;53.366;5.212;2022-10-31T05:30:46;42.78;;;18.73;;
55692;SDS011;41590;53.366;5.212;2022-10-31T05:33:23;41.58;;;16.88;;
55692;SDS011;41590;53.366;5.212;2022-10-31T05:35:49;40.85;;;18.30;;
55692;SDS011;41590;53.366;5.212;2022-10-31T05:38:15;49.53;;;19.67;;
55692;SDS011;41590;53.366;5.212;2022-10-31T05:40:55;47.50;;;21.55;;
55692;SDS011;41590;53.366;5.212;2022-10-31T05:49:26;68.75;;;30.85;;
55692;SDS011;41590;53.366;5.212;2022-10-31T05:58:14;54.88;;;27.83;;
55692;SDS011;41590;53.366;5.212;2022-10-31T06:00:48;64.95;;;29.77;;
55692;SDS011;41590;53.366;5.212;2022-10-31T06:03:17;58.00;;;27.67;;
55692;SDS011;41590;53.366;5.212;2022-10-31T06:05:45;73.80;;;31.50;;
55692;SDS011;41590;53.366;5.212;2022-10-31T06:08:15;67.22;;;29.13;;
55692;SDS011;41590;53.366;5.212;2022-10-31T06:10:42;60.78;;;28.25;;
55692;SDS011;41590;53.366;5.212;2022-10-31T06:15:46;60.60;;;29.73;;
55692;SDS011;41590;53.366;5.212;2022-10-31T06:18:20;71.18;;;32.15;;
55692;SDS011;41590;53.366;5.212;2022-10-31T06:25:58;84.72;;;34.50;;
55692;SDS011;41590;53.366;5.212;2022-10-31T06:28:26;76.22;;;33.15;;
55692;SDS011;41590;53.366;5.212;2022-10-31T06:34:03;75.28;;;37.00;;
55692;SDS011;41590;53.366;5.212;2022-10-31T06:36:34;68.20;;;36.38;;
55692;SDS011;41590;53.366;5.212;2022-10-31T06:42:10;80.80;;;40.72;;
55692;SDS011;41590;53.366;5.212;2022-10-31T06:44:52;77.95;;;39.20;;
55692;SDS011;41590;53.366;5.212;2022-10-31T06:47:18;74.60;;;40.58;;
55692;SDS011;41590;53.366;5.212;2022-10-31T06:49:44;75.53;;;39.80;;
55692;SDS011;41590;53.366;5.212;2022-10-31T06:55:52;69.22;;;36.38;;
55692;SDS011;41590;53.366;5.212;2022-10-31T06:58:19;70.93;;;38.53;;
55692;SDS011;41590;53.366;5.212;2022-10-31T07:00:46;75.07;;;36.58;;
55692;SDS011;41590;53.366;5.212;2022-10-31T07:03:13;66.90;;;36.38;;
55692;SDS011;41590;53.366;5.212;2022-10-31T07:11:30;79.97;;;39.35;;
55692;SDS011;41590;53.366;5.212;2022-10-31T07:16:28;83.18;;;39.53;;
55692;SDS011;41590;53.366;5.212;2022-10-31T07:19:00;68.00;;;36.75;;
55692;SDS011;41590;53.366;5.212;2022-10-31T07:21:27;63.10;;;38.28;;
55692;SDS011;41590;53.366;5.212;2022-10-31T07:35:22;74.32;;;39.17;;
55692;SDS011;41590;53.366;5.212;2022-10-31T07:37:54;75.03;;;39.08;;
55692;SDS011;41590;53.366;5.212;2022-10-31T07:40:21;69.03;;;38.38;;
55692;SDS011;41590;53.366;5.212;2022-10-31T07:42:51;72.82;;;39.20;;
55692;SDS011;41590;53.366;5.212;2022-10-31T07:45:19;75.22;;;39.63;;
55692;SDS011;41590;53.366;5.212;2022-10-31T07:47:47;75.05;;;41.72;;
55692;SDS011;41590;53.366;5.212;2022-10-31T07:53:18;68.60;;;38.70;;
55692;SDS011;41590;53.366;5.212;2022-10-31T07:55:44;66.32;;;39.55;;
55692;SDS011;41590;53.366;5.212;2022-10-31T08:03:35;65.43;;;37.50;;
55692;SDS011;41590;53.366;5.212;2022-10-31T08:14:57;61.38;;;37.30;;
55692;SDS011;41590;53.366;5.212;2022-10-31T08:17:24;54.67;;;35.45;;
55692;SDS011;41590;53.366;5.212;2022-10-31T08:22:56;48.55;;;32.45;;
55692;SDS011;41590;53.366;5.212;2022-10-31T08:25:30;55.42;;;35.10;;
55692;SDS011;41590;53.366;5.212;2022-10-31T08:33:17;45.97;;;31.67;;
55692;SDS011;41590;53.366;5.212;2022-10-31T08:41:08;52.30;;;30.33;;
55692;SDS011;41590;53.366;5.212;2022-10-31T08:43:38;43.15;;;28.25;;
55692;SDS011;41590;53.366;5.212;2022-10-31T08:46:16;45.53;;;28.23;;
55692;SDS011;41590;53.366;5.212;2022-10-31T08:48:43;41.40;;;26.65;;
55692;SDS011;41590;53.366;5.212;2022-10-31T08:51:09;44.83;;;27.95;;
55692;SDS011;41590;53.366;5.212;2022-10-31T08:56:39;45.80;;;27.30;;
55692;SDS011;41590;53.366;5.212;2022-10-31T08:59:12;41.15;;;25.90;;
55692;SDS011;41590;53.366;5.212;2022-10-31T09:04:29;40.05;;;27.08;;
55692;SDS011;41590;53.366;5.212;2022-10-31T09:06:54;41.35;;;25.20;;
55692;SDS011;41590;53.366;5.212;2022-10-31T09:09:23;36.70;;;24.98;;
55692;SDS011;41590;53.366;5.212;2022-10-31T09:11:51;41.33;;;26.92;;
55692;SDS011;41590;53.366;5.212;2022-10-31T09:14:18;41.03;;;26.98;;
55692;SDS011;41590;53.366;5.212;2022-10-31T09:16:43;39.78;;;27.45;;
55692;SDS011;41590;53.366;5.212;2022-10-31T09:21:45;40.25;;;27.83;;
55692;SDS011;41590;53.366;5.212;2022-10-31T09:24:12;42.53;;;27.80;;
55692;SDS011;41590;53.366;5.212;2022-10-31T09:26:41;40.60;;;28.50;;
55692;SDS011;41590;53.366;5.212;2022-10-31T09:29:07;43.90;;;27.98;;
55692;SDS011;41590;53.366;5.212;2022-10-31T09:34:09;40.42;;;28.75;;
55692;SDS011;41590;53.366;5.212;2022-10-31T09:36:42;38.65;;;27.35;;
55692;SDS011;41590;53.366;5.212;2022-10-31T09:39:20;36.13;;;26.42;;
55692;SDS011;41590;53.366;5.212;2022-10-31T09:44:55;41.42;;;26.90;;
55692;SDS011;41590;53.366;5.212;2022-10-31T09:47:37;35.70;;;25.58;;
55692;SDS011;41590;53.366;5.212;2022-10-31T09:50:33;35.75;;;26.13;;
55692;SDS011;41590;53.366;5.212;2022-10-31T09:55:47;35.85;;;26.55;;
55692;SDS011;41590;53.366;5.212;2022-10-31T09:58:23;38.35;;;28.60;;
55692;SDS011;41590;53.366;5.212;2022-10-31T10:01:00;40.85;;;28.60;;
55692;SDS011;41590;53.366;5.212;2022-10-31T10:03:35;38.40;;;28.35;;
55692;SDS011;41590;53.366;5.212;2022-10-31T10:06:18;34.28;;;25.55;;
55692;SDS011;41590;53.366;5.212;2022-10-31T10:08:53;36.22;;;27.13;;
55692;SDS011;41590;53.366;5.212;2022-10-31T10:32:47;29.67;;;22.60;;
55692;SDS011;41590;53.366;5.212;2022-10-31T10:35:39;30.33;;;23.58;;
55692;SDS011;41590;53.366;5.212;2022-10-31T10:41:05;32.38;;;23.08;;
55692;SDS011;41590;53.366;5.212;2022-10-31T10:43:38;31.65;;;23.20;;
55692;SDS011;41590;53.366;5.212;2022-10-31T10:49:21;31.73;;;23.45;;
55692;SDS011;41590;53.366;5.212;2022-10-31T10:54:49;29.42;;;22.05;;
55692;SDS011;41590;53.366;5.212;2022-10-31T10:57:44;26.60;;;21.25;;
55692;SDS011;41590;53.366;5.212;2022-10-31T11:00:27;35.08;;;22.50;;
55692;SDS011;41590;53.366;5.212;2022-10-31T11:03:08;27.50;;;22.00;;
55692;SDS011;41590;53.366;5.212;2022-10-31T11:05:51;25.92;;;19.40;;
55692;SDS011;41590;53.366;5.212;2022-10-31T11:08:36;28.35;;;20.30;;
55692;SDS011;41590;53.366;5.212;2022-10-31T11:14:03;22.27;;;16.67;;
55692;SDS011;41590;53.366;5.212;2022-10-31T11:16:40;25.48;;;18.88;;
55692;SDS011;41590;53.366;5.212;2022-10-31T11:21:42;26.20;;;18.10;;
55692;SDS011;41590;53.366;5.212;2022-10-31T11:24:17;22.98;;;16.95;;
55692;SDS011;41590;53.366;5.212;2022-10-31T11:26:50;28.35;;;19.00;;
55692;SDS011;41590;53.366;5.212;2022-10-31T11:29:22;26.13;;;18.48;;
55692;SDS011;41590;53.366;5.212;2022-10-31T11:31:53;27.30;;;18.05;;
55692;SDS011;41590;53.366;5.212;2022-10-31T11:37:21;20.45;;;14.55;;
55692;SDS011;41590;53.366;5.212;2022-10-31T11:40:02;22.48;;;15.05;;
55692;SDS011;41590;53.366;5.212;2022-10-31T11:42:40;22.27;;;15.93;;
55692;SDS011;41590;53.366;5.212;2022-10-31T11:45:13;24.27;;;16.45;;
55692;SDS011;41590;53.366;5.212;2022-10-31T11:47:52;26.55;;;16.83;;
55692;SDS011;41590;53.366;5.212;2022-10-31T11:50:25;23.75;;;15.95;;
55692;SDS011;41590;53.366;5.212;2022-10-31T11:52:56;22.38;;;16.10;;
55692;SDS011;41590;53.366;5.212;2022-10-31T11:55:32;25.73;;;15.25;;
55692;SDS011;41590;53.366;5.212;2022-10-31T11:58:02;24.90;;;14.70;;
55692;SDS011;41590;53.366;5.212;2022-10-31T12:00:38;16.52;;;12.32;;
55692;SDS011;41590;53.366;5.212;2022-10-31T12:05:58;23.27;;;14.40;;
55692;SDS011;41590;53.366;5.212;2022-10-31T12:08:29;24.15;;;15.77;;
55692;SDS011;41590;53.366;5.212;2022-10-31T12:14:05;24.33;;;17.98;;
55692;SDS011;41590;53.366;5.212;2022-10-31T12:19:35;27.63;;;18.92;;
55692;SDS011;41590;53.366;5.212;2022-10-31T12:57:44;25.02;;;15.32;;
55692;SDS011;41590;53.366;5.212;2022-10-31T13:00:19;24.02;;;15.05;;
55692;SDS011;41590;53.366;5.212;2022-10-31T13:03:05;21.23;;;14.95;;
55692;SDS011;41590;53.366;5.212;2022-10-31T13:05:54;19.52;;;13.88;;
55692;SDS011;41590;53.366;5.212;2022-10-31T13:11:26;18.92;;;13.23;;
55692;SDS011;41590;53.366;5.212;2022-10-31T13:13:59;18.00;;;10.85;;
55692;SDS011;41590;53.366;5.212;2022-10-31T13:16:39;13.15;;;9.35;;
55692;SDS011;41590;53.366;5.212;2022-10-31T13:19:21;14.13;;;9.18;;
55692;SDS011;41590;53.366;5.212;2022-10-31T13:22:02;17.13;;;9.25;;
55692;SDS011;41590;53.366;5.212;2022-10-31T13:30:39;13.77;;;8.93;;
55692;SDS011;41590;53.366;5.212;2022-10-31T13:33:09;13.13;;;8.27;;
55692;SDS011;41590;53.366;5.212;2022-10-31T13:44:29;14.23;;;7.45;;
55692;SDS011;41590;53.366;5.212;2022-10-31T13:47:00;12.32;;;7.88;;
55692;SDS011;41590;53.366;5.212;2022-10-31T13:54:49;15.55;;;8.88;;
55692;SDS011;41590;53.366;5.212;2022-10-31T14:02:51;12.82;;;8.25;;
55692;SDS011;41590;53.366;5.212;2022-10-31T14:07:49;12.77;;;8.10;;
55692;SDS011;41590;53.366;5.212;2022-10-31T14:10:22;18.23;;;8.95;;
55692;SDS011;41590;53.366;5.212;2022-10-31T14:15:57;20.17;;;12.45;;
55692;SDS011;41590;53.366;5.212;2022-10-31T14:18:30;17.50;;;12.77;;
55692;SDS011;41590;53.366;5.212;2022-10-31T14:23:53;18.27;;;12.90;;
55692;SDS011;41590;53.366;5.212;2022-10-31T14:31:39;19.25;;;14.02;;
55692;SDS011;41590;53.366;5.212;2022-10-31T14:34:18;29.42;;;15.18;;
55692;SDS011;41590;53.366;5.212;2022-10-31T14:43:07;20.88;;;13.45;;
55692;SDS011;41590;53.366;5.212;2022-10-31T14:45:45;22.27;;;14.95;;
55692;SDS011;41590;53.366;5.212;2022-10-31T14:49:01;21.98;;;14.02;;
55692;SDS011;41590;53.366;5.212;2022-10-31T14:51:47;23.83;;;13.18;;
55692;SDS011;41590;53.366;5.212;2022-10-31T14:54:15;21.50;;;13.10;;
55692;SDS011;41590;53.366;5.212;2022-10-31T15:00:07;22.88;;;14.20;;
55692;SDS011;41590;53.366;5.212;2022-10-31T15:02:59;24.85;;;14.23;;
55692;SDS011;41590;53.366;5.212;2022-10-31T15:05:55;21.65;;;12.50;;
55692;SDS011;41590;53.366;5.212;2022-10-31T15:11:14;21.75;;;10.80;;
55692;SDS011;41590;53.366;5.212;2022-10-31T15:13:59;17.77;;;9.93;;
55692;SDS011;41590;53.366;5.212;2022-10-31T15:16:35;17.83;;;8.32;;
55692;SDS011;41590;53.366;5.212;2022-10-31T15:19:05;14.73;;;8.55;;
55692;SDS011;41590;53.366;5.212;2022-10-31T15:21:36;13.90;;;7.13;;
55692;SDS011;41590;53.366;5.212;2022-10-31T15:24:10;18.83;;;8.35;;
55692;SDS011;41590;53.366;5.212;2022-10-31T15:26:44;14.50;;;7.03;;
55692;SDS011;41590;53.366;5.212;2022-10-31T15:29:16;16.58;;;8.25;;
55692;SDS011;41590;53.366;5.212;2022-10-31T15:31:51;15.35;;;7.72;;
55692;SDS011;41590;53.366;5.212;2022-10-31T15:34:41;15.55;;;6.63;;
55692;SDS011;41590;53.366;5.212;2022-10-31T15:37:11;12.15;;;6.60;;
55692;SDS011;41590;53.366;5.212;2022-10-31T15:39:42;15.70;;;6.85;;
55692;SDS011;41590;53.366;5.212;2022-10-31T15:42:20;14.40;;;6.93;;
55692;SDS011;41590;53.366;5.212;2022-10-31T15:47:37;16.05;;;6.88;;
55692;SDS011;41590;53.366;5.212;2022-10-31T15:50:05;12.88;;;6.80;;
55692;SDS011;41590;53.366;5.212;2022-10-31T15:52:44;13.13;;;6.90;;
55692;SDS011;41590;53.366;5.212;2022-10-31T15:58:35;14.18;;;7.00;;
55692;SDS011;41590;53.366;5.212;2022-10-31T16:04:02;14.00;;;7.13;;
55692;SDS011;41590;53.366;5.212;2022-10-31T16:07:00;15.18;;;7.53;;
55692;SDS011;41590;53.366;5.212;2022-10-31T16:09:29;13.82;;;5.70;;
55692;SDS011;41590;53.366;5.212;2022-10-31T16:11:56;11.45;;;6.03;;
55692;SDS011;41590;53.366;5.212;2022-10-31T16:14:28;15.15;;;6.10;;
55692;SDS011;41590;53.366;5.212;2022-10-31T16:16:59;10.23;;;5.60;;
55692;SDS011;41590;53.366;5.212;2022-10-31T16:19:36;11.25;;;6.32;;
55692;SDS011;41590;53.366;5.212;2022-10-31T16:22:12;11.93;;;7.30;;
55692;SDS011;41590;53.366;5.212;2022-10-31T16:24:57;11.95;;;6.78;;
55692;SDS011;41590;53.366;5.212;2022-10-31T16:27:26;13.85;;;6.45;;
55692;SDS011;41590;53.366;5.212;2022-10-31T16:30:25;12.38;;;6.47;;
55692;SDS011;41590;53.366;5.212;2022-10-31T16:32:57;10.60;;;6.22;;
55692;SDS011;41590;53.366;5.212;2022-10-31T16:35:26;11.13;;;5.80;;
55692;SDS011;41590;53.366;5.212;2022-10-31T16:38:09;15.10;;;6.53;;
55692;SDS011;41590;53.366;5.212;2022-10-31T16:40:35;16.33;;;5.95;;
55692;SDS011;41590;53.366;5.212;2022-10-31T16:43:13;15.80;;;6.70;;
55692;SDS011;41590;53.366;5.212;2022-10-31T16:46:00;15.27;;;6.00;;
55692;SDS011;41590;53.366;5.212;2022-10-31T16:48:27;14.25;;;6.68;;
55692;SDS011;41590;53.366;5.212;2022-10-31T16:50:53;13.45;;;6.13;;
55692;SDS011;41590;53.366;5.212;2022-10-31T16:53:18;9.98;;;5.90;;
55692;SDS011;41590;53.366;5.212;2022-10-31T16:55:46;14.52;;;6.50;;
55692;SDS011;41590;53.366;5.212;2022-10-31T16:58:25;13.57;;;5.53;;
55692;SDS011;41590;53.366;5.212;2022-10-31T17:00:54;11.27;;;4.28;;
55692;SDS011;41590;53.366;5.212;2022-10-31T17:03:20;11.27;;;5.13;;
55692;SDS011;41590;53.366;5.212;2022-10-31T17:05:47;13.07;;;4.72;;
55692;SDS011;41590;53.366;5.212;2022-10-31T17:08:14;8.73;;;4.05;;
55692;SDS011;41590;53.366;5.212;2022-10-31T17:10:41;12.15;;;4.88;;
55692;SDS011;41590;53.366;5.212;2022-10-31T17:13:16;11.05;;;4.40;;
55692;SDS011;41590;53.366;5.212;2022-10-31T17:15:47;9.63;;;4.38;;
55692;SDS011;41590;53.366;5.212;2022-10-31T17:20:58;10.60;;;3.78;;
55692;SDS011;41590;53.366;5.212;2022-10-31T17:26:12;13.65;;;4.70;;
55692;SDS011;41590;53.366;5.212;2022-10-31T17:28:38;14.88;;;7.10;;
55692;SDS011;41590;53.366;5.212;2022-10-31T17:31:04;17.10;;;6.72;;
55692;SDS011;41590;53.366;5.212;2022-10-31T17:33:32;14.15;;;5.43;;
55692;SDS011;41590;53.366;5.212;2022-10-31T17:36:01;13.18;;;5.57;;
55692;SDS011;41590;53.366;5.212;2022-10-31T17:38:28;19.48;;;5.72;;
55692;SDS011;41590;53.366;5.212;2022-10-31T17:40:54;10.52;;;5.40;;
55692;SDS011;41590;53.366;5.212;2022-10-31T17:43:20;13.15;;;6.07;;
55692;SDS011;41590;53.366;5.212;2022-10-31T17:45:46;14.82;;;6.63;;
55692;SDS011;41590;53.366;5.212;2022-10-31T17:48:12;14.27;;;6.03;;
55692;SDS011;41590;53.366;5.212;2022-10-31T17:50:38;12.32;;;5.50;;
55692;SDS011;41590;53.366;5.212;2022-10-31T17:53:04;16.23;;;7.78;;
55692;SDS011;41590;53.366;5.212;2022-10-31T17:55:34;14.70;;;6.20;;
55692;SDS011;41590;53.366;5.212;2022-10-31T17:58:01;13.73;;;7.28;;
55692;SDS011;41590;53.366;5.212;2022-10-31T18:00:27;14.90;;;8.00;;
55692;SDS011;41590;53.366;5.212;2022-10-31T18:02:53;15.20;;;8.00;;
55692;SDS011;41590;53.366;5.212;2022-10-31T18:05:24;17.60;;;7.13;;
55692;SDS011;41590;53.366;5.212;2022-10-31T18:07:50;14.65;;;7.55;;
55692;SDS011;41590;53.366;5.212;2022-10-31T18:10:16;12.60;;;7.90;;
55692;SDS011;41590;53.366;5.212;2022-10-31T18:12:42;16.23;;;8.23;;
55692;SDS011;41590;53.366;5.212;2022-10-31T18:15:13;17.45;;;8.82;;
55692;SDS011;41590;53.366;5.212;2022-10-31T18:17:40;15.30;;;8.65;;
55692;SDS011;41590;53.366;5.212;2022-10-31T18:23:47;15.20;;;8.63;;
55692;SDS011;41590;53.366;5.212;2022-10-31T18:26:19;16.70;;;9.23;;
55692;SDS011;41590;53.366;5.212;2022-10-31T18:29:03;17.80;;;9.63;;
55692;SDS011;41590;53.366;5.212;2022-10-31T18:31:44;18.92;;;10.35;;
55692;SDS011;41590;53.366;5.212;2022-10-31T18:40:25;19.15;;;9.60;;
55692;SDS011;41590;53.366;5.212;2022-10-31T18:42:52;19.10;;;10.68;;
55692;SDS011;41590;53.366;5.212;2022-10-31T18:45:20;20.15;;;11.43;;
55692;SDS011;41590;53.366;5.212;2022-10-31T18:50:21;27.25;;;13.38;;
55692;SDS011;41590;53.366;5.212;2022-10-31T18:52:47;21.38;;;13.60;;
55692;SDS011;41590;53.366;5.212;2022-10-31T18:55:13;21.30;;;13.95;;
55692;SDS011;41590;53.366;5.212;2022-10-31T18:57:41;23.85;;;14.10;;
55692;SDS011;41590;53.366;5.212;2022-10-31T19:00:07;23.88;;;13.88;;
55692;SDS011;41590;53.366;5.212;2022-10-31T19:02:35;25.98;;;14.18;;
55692;SDS011;41590;53.366;5.212;2022-10-31T19:05:02;23.25;;;15.00;;
55692;SDS011;41590;53.366;5.212;2022-10-31T19:07:28;24.00;;;14.77;;
55692;SDS011;41590;53.366;5.212;2022-10-31T19:09:55;24.75;;;15.18;;
55692;SDS011;41590;53.366;5.212;2022-10-31T19:12:21;25.65;;;16.13;;
55692;SDS011;41590;53.366;5.212;2022-10-31T19:14:47;26.65;;;16.48;;
55692;SDS011;41590;53.366;5.212;2022-10-31T19:19:50;30.58;;;16.40;;
55692;SDS011;41590;53.366;5.212;2022-10-31T19:22:17;22.25;;;15.68;;
55692;SDS011;41590;53.366;5.212;2022-10-31T19:24:43;32.35;;;16.77;;
55692;SDS011;41590;53.366;5.212;2022-10-31T19:27:10;28.77;;;16.50;;
55692;SDS011;41590;53.366;5.212;2022-10-31T19:29:35;28.17;;;16.17;;
55692;SDS011;41590;53.366;5.212;2022-10-31T19:32:05;33.20;;;18.85;;
55692;SDS011;41590;53.366;5.212;2022-10-31T19:34:32;26.73;;;15.70;;
55692;SDS011;41590;53.366;5.212;2022-10-31T19:37:02;36.22;;;20.50;;
55692;SDS011;41590;53.366;5.212;2022-10-31T19:39:27;31.23;;;21.25;;
55692;SDS011;41590;53.366;5.212;2022-10-31T19:42:02;46.50;;;31.92;;
55692;SDS011;41590;53.366;5.212;2022-10-31T19:44:33;32.53;;;20.80;;
55692;SDS011;41590;53.366;5.212;2022-10-31T19:47:01;30.38;;;18.92;;
55692;SDS011;41590;53.366;5.212;2022-10-31T19:49:28;33.13;;;20.95;;
55692;SDS011;41590;53.366;5.212;2022-10-31T19:51:56;38.83;;;23.75;;
55692;SDS011;41590;53.366;5.212;2022-10-31T19:54:22;37.58;;;22.45;;
55692;SDS011;41590;53.366;5.212;2022-10-31T19:56:50;48.17;;;23.60;;
55692;SDS011;41590;53.366;5.212;2022-10-31T19:59:17;37.15;;;23.20;;
55692;SDS011;41590;53.366;5.212;2022-10-31T20:01:44;38.17;;;23.60;;
55692;SDS011;41590;53.366;5.212;2022-10-31T20:06:42;35.33;;;22.77;;
55692;SDS011;41590;53.366;5.212;2022-10-31T20:09:10;43.60;;;24.38;;
55692;SDS011;41590;53.366;5.212;2022-10-31T20:11:40;42.38;;;25.02;;
55692;SDS011;41590;53.366;5.212;2022-10-31T20:14:09;46.85;;;28.73;;
55692;SDS011;41590;53.366;5.212;2022-10-31T20:16:37;46.85;;;27.50;;
55692;SDS011;41590;53.366;5.212;2022-10-31T20:19:03;51.50;;;27.77;;
55692;SDS011;41590;53.366;5.212;2022-10-31T20:21:37;48.63;;;31.10;;
55692;SDS011;41590;53.366;5.212;2022-10-31T20:24:04;45.55;;;28.58;;
55692;SDS011;41590;53.366;5.212;2022-10-31T20:26:33;50.40;;;29.20;;
55692;SDS011;41590;53.366;5.212;2022-10-31T20:29:01;43.25;;;25.92;;